Time;durP1;ratioP1;P1;durP2;ratioP2;P2;SDS_P1;SDS_P2;PMS_P1;PMS_P2;Temp;Humidity;BMP_temperature;BMP_pressure;BME280_temperature;BME280_humidity;BME280_pressure;Samples;Min_cycle;Max_cycle;Signal;HPM_P1;HPM_P2
2022/10/14 00:01:22;;;;;;;21.60;13.95;;;;;;;12.11;100.00;100882.00;4947729;28;20047;-77
2022/10/14 00:03:49;;;;;;;25.13;15.13;;;;;;;12.12;100.00;100880.22;4931514;28;20150;-76
2022/10/14 00:06:20;;;;;;;27.08;15.40;;;;;;;12.12;100.00;100872.34;4945148;28;20043;-80
2022/10/14 00:08:47;;;;;;;21.80;13.90;;;;;;;12.12;100.00;100875.84;4936208;28;20048;-75
2022/10/14 00:11:25;;;;;;;21.08;13.55;;;;;;;12.14;100.00;100878.47;4921249;29;20130;-77
2022/10/14 00:13:55;;;;;;;16.67;12.95;;;;;;;12.14;100.00;100881.94;4926952;28;20410;-76
2022/10/14 00:16:27;;;;;;;18.27;11.05;;;;;;;12.15;100.00;100874.94;4935354;29;20060;-80
2022/10/14 00:18:53;;;;;;;20.33;13.48;;;;;;;12.15;100.00;100875.81;4947370;28;20199;-75
2022/10/14 00:21:20;;;;;;;19.38;12.18;;;;;;;12.16;100.00;100874.94;4946439;28;20051;-76
2022/10/14 00:23:47;;;;;;;18.55;12.50;;;;;;;12.17;100.00;100867.91;4944445;28;20055;-76
2022/10/14 00:26:17;;;;;;;18.98;12.82;;;;;;;12.15;100.00;100872.31;4937106;29;20885;-78
2022/10/14 00:28:44;;;;;;;18.70;13.02;;;;;;;12.11;100.00;100873.22;4940128;28;20039;-80
2022/10/14 00:31:10;;;;;;;17.23;13.38;;;;;;;12.10;100.00;100871.50;4941462;28;20145;-79
2022/10/14 00:33:37;;;;;;;22.75;12.70;;;;;;;12.07;100.00;100873.28;4935289;28;20078;-78
2022/10/14 00:36:07;;;;;;;22.05;13.95;;;;;;;12.08;100.00;100869.78;4935326;29;20114;-78
2022/10/14 00:38:36;;;;;;;19.45;13.77;;;;;;;12.09;100.00;100870.63;4938467;29;20053;-78
2022/10/14 00:41:03;;;;;;;26.08;15.32;;;;;;;12.10;100.00;100874.13;4937267;28;20109;-79
2022/10/14 00:43:57;;;;;;;25.15;15.50;;;;;;;12.10;100.00;100861.00;4935645;28;20047;-76
2022/10/14 00:46:26;;;;;;;22.25;13.85;;;;;;;12.07;100.00;100861.91;4954295;28;20085;-76
2022/10/14 00:48:52;;;;;;;25.35;14.48;;;;;;;12.07;100.00;100869.78;4922638;29;20501;-80
2022/10/14 00:51:20;;;;;;;22.38;15.23;;;;;;;12.05;100.00;100872.41;4956805;28;20051;-76
2022/10/14 00:53:47;;;;;;;18.92;13.48;;;;;;;12.04;100.00;100867.19;4947268;28;20046;-75
2022/10/14 00:56:19;;;;;;;16.27;12.25;;;;;;;12.04;100.00;100865.44;4940758;29;20070;-75
2022/10/14 00:58:46;;;;;;;22.25;13.88;;;;;;;12.04;100.00;100856.69;4951435;29;20066;-77
2022/10/14 01:01:13;;;;;;;22.25;14.77;;;;;;;12.02;100.00;100850.59;4942511;29;20118;-75
2022/10/14 01:03:40;;;;;;;21.70;12.70;;;;;;;12.00;100.00;100858.47;4924563;28;20138;-75
2022/10/14 01:06:39;;;;;;;28.23;18.42;;;;;;;11.95;100.00;100855.03;4952574;28;20043;-76
2022/10/14 01:09:33;;;;;;;16.98;11.75;;;;;;;11.94;100.00;100855.03;4942167;28;20078;-79
2022/10/14 01:12:32;;;;;;;;;;;;;;;11.96;100.00;100862.03;4945522;29;20055;-78
2022/10/14 01:15:51;;;;;;;27.00;15.90;;;;;;;11.98;100.00;100856.75;4940868;29;19930;-75
2022/10/14 01:19:07;;;;;;;20.65;14.25;;;;;;;12.01;100.00;100849.72;4936338;28;20042;-76
2022/10/14 01:21:42;;;;;;;29.10;15.70;;;;;;;12.03;100.00;100850.59;4948017;28;20047;-77
2022/10/14 01:24:45;;;;;;;27.35;16.45;;;;;;;12.05;100.00;100854.06;4928905;29;20050;-75
2022/10/14 01:27:54;;;;;;;19.13;14.50;;;;;;;12.07;100.00;100846.16;4945032;28;20047;-79
2022/10/14 01:30:27;;;;;;;17.40;12.48;;;;;;;12.08;100.00;100850.53;4947250;28;20143;-78
2022/10/14 01:33:28;;;;;;;19.73;12.63;;;;;;;12.11;100.00;100844.38;4948848;28;20490;-81
2022/10/14 01:36:10;;;;;;;18.30;12.70;;;;;;;12.10;100.00;100848.75;4953569;28;20130;-79
2022/10/14 01:38:48;;;;;;;20.80;15.05;;;;;;;12.10;100.00;100834.75;4921533;29;20040;-77
2022/10/14 01:41:23;;;;;;;20.67;14.77;;;;;;;12.10;100.00;100837.38;4937664;29;20114;-77
2022/10/14 01:43:52;;;;;;;21.13;14.55;;;;;;;12.07;100.00;100836.53;4946594;28;20055;-82
2022/10/14 01:46:22;;;;;;;20.58;14.77;;;;;;;12.06;100.00;100837.44;4935462;28;20053;-80
2022/10/14 01:48:55;;;;;;;22.17;15.40;;;;;;;12.08;100.00;100834.78;4937001;28;20047;-81
2022/10/14 01:51:32;;;;;;;18.85;13.95;;;;;;;12.08;100.00;100835.66;4948749;28;20393;-78
2022/10/14 01:54:10;;;;;;;21.35;15.00;;;;;;;12.10;100.00;100830.38;4932933;28;20481;-79
2022/10/14 01:56:37;;;;;;;20.95;14.60;;;;;;;12.08;100.00;100825.16;4948928;28;20747;-81
2022/10/14 01:59:04;;;;;;;22.35;15.63;;;;;;;12.09;100.00;100826.03;4949217;28;20102;-79
2022/10/14 02:01:33;;;;;;;22.05;16.35;;;;;;;12.10;100.00;100827.78;4945437;28;20135;-80
2022/10/14 02:04:00;;;;;;;23.27;16.35;;;;;;;12.12;100.00;100833.00;4934758;28;20040;-80
2022/10/14 02:06:40;;;;;;;19.92;14.57;;;;;;;12.14;100.00;100825.97;4945706;28;20785;-78
2022/10/14 02:09:31;;;;;;;20.70;14.02;;;;;;;12.15;100.00;100828.59;4946410;28;20049;-78
2022/10/14 02:12:35;;;;;;;27.40;16.90;;;;;;;12.17;100.00;100829.41;4949910;28;20043;-78
2022/10/14 02:15:30;;;;;;;20.48;14.55;;;;;;;12.19;100.00;100834.63;4946613;28;20487;-78
2022/10/14 02:18:38;;;;;;;25.02;17.20;;;;;;;12.20;100.00;100820.63;4936545;28;20043;-78
2022/10/14 02:21:24;;;;;;;21.67;15.45;;;;;;;12.19;100.00;100822.41;4946621;28;20050;-80
2022/10/14 02:24:01;;;;;;;27.00;17.17;;;;;;;12.17;100.00;100816.28;4933219;28;20047;-80
2022/10/14 02:26:30;;;;;;;21.35;15.63;;;;;;;12.17;100.00;100816.28;4940572;28;20052;-80
2022/10/14 02:28:57;;;;;;;22.60;15.35;;;;;;;12.18;100.00;100818.03;4922062;28;20050;-81
2022/10/14 02:31:26;;;;;;;22.73;15.73;;;;;;;12.19;100.00;100816.25;4936349;29;20132;-77
2022/10/14 02:33:57;;;;;;;22.75;13.80;;;;;;;12.19;100.00;100814.53;4932234;28;20044;-78
2022/10/14 02:36:26;;;;;;;21.55;14.75;;;;;;;12.18;100.00;100812.78;4911638;28;20440;-78
2022/10/14 02:38:56;;;;;;;20.95;14.70;;;;;;;12.19;100.00;100821.50;4933466;28;20846;-79
2022/10/14 02:41:27;;;;;;;19.10;12.60;;;;;;;12.20;100.00;100815.38;4931161;29;20043;-76
2022/10/14 02:43:54;;;;;;;14.32;11.45;;;;;;;12.21;100.00;100817.13;4944964;28;20051;-81
2022/10/14 02:46:22;;;;;;;18.13;13.52;;;;;;;12.18;100.00;100810.16;4933833;28;20050;-79
2022/10/14 02:48:50;;;;;;;18.08;12.15;;;;;;;12.15;100.00;100807.59;4947213;28;20047;-79
2022/10/14 02:51:17;;;;;;;18.95;13.23;;;;;;;12.14;100.00;100810.25;4946317;28;21260;-76
2022/10/14 02:53:43;;;;;;;16.23;12.23;;;;;;;12.13;100.00;100803.25;4930591;28;20497;-81
2022/10/14 02:56:13;;;;;;;19.58;13.57;;;;;;;12.12;100.00;100806.75;4934446;29;20679;-81
2022/10/14 02:58:40;;;;;;;16.67;12.55;;;;;;;12.11;100.00;100805.91;4937517;29;20043;-78
2022/10/14 03:01:07;;;;;;;24.25;14.60;;;;;;;12.13;100.00;100805.88;4948496;28;20058;-76
2022/10/14 03:03:33;;;;;;;16.50;12.25;;;;;;;12.11;100.00;100805.91;4916042;28;20051;-76
2022/10/14 03:06:02;;;;;;;17.80;13.60;;;;;;;12.10;100.00;100798.91;4934587;28;20046;-80
2022/10/14 03:08:29;;;;;;;19.45;12.60;;;;;;;12.11;100.00;100803.28;4936413;29;20082;-77
2022/10/14 03:10:56;;;;;;;18.33;13.75;;;;;;;12.13;100.00;100801.47;4947451;28;20489;-78
2022/10/14 03:13:22;;;;;;;18.65;12.02;;;;;;;12.14;100.00;100805.84;4932760;28;20043;-84
2022/10/14 03:15:49;;;;;;;21.52;12.02;;;;;;;12.14;100.00;100802.38;4937492;28;20138;-75
2022/10/14 03:18:16;;;;;;;17.85;11.52;;;;;;;12.14;100.00;100799.75;4919939;29;20500;-78
2022/10/14 03:20:44;;;;;;;19.38;14.02;;;;;;;12.12;100.00;100799.72;4918509;28;20055;-76
2022/10/14 03:23:14;;;;;;;17.45;12.30;;;;;;;12.14;100.00;100794.50;4942482;28;20046;-77
2022/10/14 03:25:45;;;;;;;18.25;12.48;;;;;;;12.14;100.00;100792.72;4948556;28;20057;-81
2022/10/14 03:28:12;;;;;;;18.25;13.48;;;;;;;12.14;100.00;100784.00;4934208;29;20051;-79
2022/10/14 03:30:41;;;;;;;20.50;11.77;;;;;;;12.13;100.00;100784.88;4937433;28;20039;-81
2022/10/14 03:33:08;;;;;;;21.77;13.65;;;;;;;12.12;100.00;100788.38;4946722;28;20123;-80
2022/10/14 03:35:35;;;;;;;18.02;12.77;;;;;;;12.10;100.00;100788.41;4947118;28;20047;-77
2022/10/14 03:38:02;;;;;;;16.60;11.70;;;;;;;12.11;100.00;100790.16;4951094;28;20130;-79
2022/10/14 03:40:32;;;;;;;20.00;13.95;;;;;;;12.12;100.00;100791.88;4946916;28;20045;-79
2022/10/14 03:43:02;;;;;;;20.23;13.07;;;;;;;12.12;100.00;100789.25;4948252;28;20049;-79
2022/10/14 03:45:28;;;;;;;18.98;10.73;;;;;;;12.13;100.00;100782.25;4950471;28;20043;-77
2022/10/14 03:47:56;;;;;;;21.88;14.90;;;;;;;12.13;100.00;100785.72;4950415;28;20099;-76
2022/10/14 03:50:23;;;;;;;22.75;14.65;;;;;;;12.11;100.00;100784.91;4948422;28;20058;-80
2022/10/14 03:52:49;;;;;;;23.75;16.05;;;;;;;12.03;100.00;100773.63;4944840;28;20504;-75
2022/10/14 03:55:19;;;;;;;20.75;15.05;;;;;;;11.95;100.00;100773.72;4949021;28;20039;-75
2022/10/14 03:57:45;;;;;;;26.33;16.33;;;;;;;11.90;100.00;100780.75;4951645;28;20063;-81
2022/10/14 04:00:13;;;;;;;24.08;15.85;;;;;;;11.86;100.00;100787.81;4947820;28;20047;-76
2022/10/14 04:02:40;;;;;;;23.65;14.55;;;;;;;11.86;100.00;100787.81;4948590;28;20050;-76
2022/10/14 04:05:07;;;;;;;23.95;15.23;;;;;;;11.91;100.00;100779.84;4948275;28;20660;-76
2022/10/14 04:07:34;;;;;;;17.77;13.90;;;;;;;11.96;100.00;100782.47;4949671;28;20059;-76
2022/10/14 04:10:00;;;;;;;22.80;15.55;;;;;;;12.00;100.00;100781.53;4951052;28;20042;-78
2022/10/14 04:12:27;;;;;;;24.58;15.98;;;;;;;12.02;100.00;100780.63;4946573;28;20043;-77
2022/10/14 04:14:55;;;;;;;24.85;14.88;;;;;;;12.04;100.00;100784.09;4945062;28;20062;-77
2022/10/14 04:17:22;;;;;;;22.30;14.82;;;;;;;12.06;100.00;100784.09;4947901;28;20071;-78
2022/10/14 04:19:48;;;;;;;25.42;17.08;;;;;;;12.03;100.00;100786.72;4946654;28;20040;-79
2022/10/14 04:22:15;;;;;;;24.05;16.95;;;;;;;11.91;100.00;100779.84;4944918;28;20055;-77
2022/10/14 04:24:41;;;;;;;21.85;14.77;;;;;;;11.72;100.00;100776.56;4946831;28;20063;-77
2022/10/14 04:27:08;;;;;;;22.48;16.60;;;;;;;11.51;100.00;100786.44;4946147;28;20051;-78
2022/10/14 04:29:35;;;;;;;23.40;15.43;;;;;;;11.36;100.00;100781.34;4945545;28;20047;-75
2022/10/14 04:32:01;;;;;;;25.67;16.90;;;;;;;11.28;100.00;100785.78;4948529;28;20129;-81
2022/10/14 04:34:30;;;;;;;25.38;16.15;;;;;;;11.25;100.00;100787.56;4947069;28;20079;-81
2022/10/14 04:36:56;;;;;;;24.45;17.30;;;;;;;11.27;100.00;100781.47;4943881;28;20069;-76
2022/10/14 04:39:23;;;;;;;26.48;17.40;;;;;;;11.29;100.00;100780.56;4945211;28;20059;-79
2022/10/14 04:41:49;;;;;;;25.00;16.52;;;;;;;11.27;100.00;100779.69;4945616;28;20047;-77
2022/10/14 04:44:16;;;;;;;27.77;18.23;;;;;;;11.24;100.00;100774.50;4942636;28;20050;-78
2022/10/14 04:46:42;;;;;;;21.67;14.85;;;;;;;11.22;100.00;100777.13;4947210;28;20537;-80
2022/10/14 04:49:11;;;;;;;29.13;17.52;;;;;;;11.18;100.00;100780.63;4945517;28;20122;-78
2022/10/14 04:51:47;;;;;;;27.15;18.73;;;;;;;11.16;100.00;100781.53;4946677;28;20142;-77
2022/10/14 04:54:13;;;;;;;32.55;17.95;;;;;;;11.11;100.00;100778.97;4928906;28;20058;-80
2022/10/14 04:56:40;;;;;;;30.77;18.70;;;;;;;11.02;100.00;100777.31;4930111;29;20059;-77
2022/10/14 04:59:06;;;;;;;31.10;19.38;;;;;;;10.92;100.00;100767.78;4944275;28;20050;-81
2022/10/14 05:01:33;;;;;;;23.75;16.55;;;;;;;10.87;100.00;100772.19;4945729;28;20047;-79
2022/10/14 05:03:59;;;;;;;24.98;16.75;;;;;;;10.81;100.00;100773.13;4937033;28;20153;-78
2022/10/14 05:06:26;;;;;;;27.30;16.35;;;;;;;10.75;100.00;100765.31;4944607;28;20054;-81
2022/10/14 05:08:52;;;;;;;26.50;18.60;;;;;;;10.70;100.00;100770.59;4943740;28;20054;-77
2022/10/14 05:11:19;;;;;;;34.20;21.85;;;;;;;10.65;100.00;100755.78;4945373;28;20055;-76
2022/10/14 05:13:45;;;;;;;34.17;22.58;;;;;;;10.57;100.00;100751.50;4948176;28;20410;-77
2022/10/14 05:16:12;;;;;;;30.92;21.42;;;;;;;10.49;100.00;100755.88;4949279;28;20074;-77
2022/10/14 05:18:38;;;;;;;34.13;18.80;;;;;;;10.41;100.00;100757.69;4951178;28;20058;-81
2022/10/14 05:21:05;;;;;;;32.10;20.42;;;;;;;10.30;100.00;100757.75;4937255;28;20777;-77
2022/10/14 05:23:32;;;;;;;28.05;18.85;;;;;;;10.24;100.00;100749.91;4948446;28;20051;-78
2022/10/14 05:25:58;;;;;;;25.67;17.52;;;;;;;10.22;100.00;100759.50;4948530;28;20755;-78
2022/10/14 05:28:25;;;;;;;27.80;18.92;;;;;;;10.19;100.00;100765.63;4945637;28;20079;-77
2022/10/14 05:30:51;;;;;;;38.83;21.23;;;;;;;10.24;100.00;100765.63;4946987;28;20043;-79
2022/10/14 05:33:18;;;;;;;37.00;20.48;;;;;;;10.31;100.00;100769.06;4945423;28;20037;-80
2022/10/14 05:35:46;;;;;;;30.08;18.55;;;;;;;10.36;100.00;100768.19;4947253;28;20040;-77
2022/10/14 05:38:13;;;;;;;38.63;21.58;;;;;;;10.43;100.00;100775.13;4948647;28;20043;-80
2022/10/14 05:40:40;;;;;;;32.40;20.30;;;;;;;10.52;100.00;100770.69;4948543;28;20070;-79
2022/10/14 05:43:07;;;;;;;32.53;20.27;;;;;;;10.55;100.00;100771.56;4925986;29;20565;-75
2022/10/14 05:45:33;;;;;;;37.28;21.05;;;;;;;10.60;100.00;100771.53;4950509;28;20039;-80
2022/10/14 05:48:00;;;;;;;37.08;22.27;;;;;;;10.65;100.00;100769.75;4954427;28;20049;-78
2022/10/14 05:50:26;;;;;;;41.40;23.67;;;;;;;10.69;100.00;100775.81;4953173;28;20044;-75
2022/10/14 05:52:53;;;;;;;40.55;21.88;;;;;;;10.72;100.00;100765.34;4969261;28;20150;-75
2022/10/14 05:55:19;;;;;;;28.58;18.42;;;;;;;10.69;100.00;100763.63;4956161;28;20130;-75
2022/10/14 05:57:46;;;;;;;35.38;21.17;;;;;;;10.72;100.00;100766.19;4953847;28;20050;-77
2022/10/14 06:00:13;;;;;;;31.50;20.13;;;;;;;10.77;100.00;100763.56;4951877;28;20058;-78
2022/10/14 06:02:39;;;;;;;39.97;23.15;;;;;;;10.84;100.00;100770.47;4952160;28;20045;-80
2022/10/14 06:05:06;;;;;;;31.90;19.38;;;;;;;10.92;100.00;100767.78;4951180;28;20047;-75
2022/10/14 06:07:36;;;;;;;32.33;19.33;;;;;;;10.98;100.00;100767.75;4950454;28;20070;-77
2022/10/14 06:10:03;;;;;;;33.58;18.50;;;;;;;11.05;100.00;100765.94;4966536;28;20043;-75
2022/10/14 06:12:31;;;;;;;34.33;19.15;;;;;;;11.14;100.00;100759.75;4947261;28;20043;-75
2022/10/14 06:14:57;;;;;;;25.02;16.23;;;;;;;11.19;100.00;100761.41;4951682;28;20579;-75
2022/10/14 06:17:24;;;;;;;25.60;16.67;;;;;;;11.24;100.00;100750.91;4951394;28;20165;-76
2022/10/14 06:19:50;;;;;;;36.20;19.92;;;;;;;11.31;100.00;100755.19;4935542;29;20039;-76
2022/10/14 06:22:17;;;;;;;29.63;18.95;;;;;;;11.37;100.00;100759.50;4950927;28;20063;-76
2022/10/14 06:24:43;;;;;;;27.40;15.10;;;;;;;11.42;100.00;100758.56;4950275;28;20736;-77
2022/10/14 06:27:10;;;;;;;32.83;19.90;;;;;;;11.50;100.00;100754.97;4951531;29;20043;-81
2022/10/14 06:29:37;;;;;;;35.53;20.08;;;;;;;11.54;100.00;100754.09;4949621;29;20714;-79
2022/10/14 06:32:05;;;;;;;29.75;18.67;;;;;;;11.59;100.00;100755.75;4948357;28;20070;-80
2022/10/14 06:34:33;;;;;;;33.60;19.67;;;;;;;11.66;100.00;100750.44;4949637;28;20054;-78
2022/10/14 06:37:01;;;;;;;31.90;19.20;;;;;;;11.71;100.00;100754.75;4947618;28;20077;-76
2022/10/14 06:39:27;;;;;;;25.25;16.05;;;;;;;11.78;100.00;100745.03;4948257;29;20418;-77
2022/10/14 06:41:57;;;;;;;24.30;16.52;;;;;;;11.85;100.00;100751.06;4947463;28;20047;-77
2022/10/14 06:44:24;;;;;;;36.03;20.02;;;;;;;11.91;100.00;100748.38;4951949;28;20086;-76
2022/10/14 06:46:50;;;;;;;27.60;17.30;;;;;;;11.94;100.00;100750.09;4952877;29;20455;-75
2022/10/14 06:49:17;;;;;;;32.10;19.50;;;;;;;11.96;100.00;100746.59;4950598;29;20118;-75
2022/10/14 06:51:44;;;;;;;28.42;17.88;;;;;;;12.01;100.00;100754.41;4949793;29;20746;-76
2022/10/14 06:54:10;;;;;;;67.50;28.25;;;;;;;12.08;100.00;100750.81;4948873;28;20510;-79
2022/10/14 06:56:37;;;;;;;34.42;20.73;;;;;;;12.15;100.00;100752.47;4949532;29;20098;-75
2022/10/14 06:59:04;;;;;;;31.52;20.85;;;;;;;12.16;100.00;100751.59;4952434;29;20682;-75
2022/10/14 07:01:33;;;;;;;32.58;20.20;;;;;;;12.17;100.00;100760.31;4952696;28;20508;-76
2022/10/14 07:04:00;;;;;;;28.30;19.05;;;;;;;12.20;100.00;100761.16;4949776;28;20576;-82
2022/10/14 07:06:26;;;;;;;34.45;21.50;;;;;;;12.24;100.00;100761.94;4937096;29;20035;-76
2022/10/14 07:08:53;;;;;;;26.90;17.45;;;;;;;12.29;100.00;100759.28;4952542;29;20058;-75
2022/10/14 07:11:19;;;;;;;37.58;21.58;;;;;;;12.33;100.00;100759.22;4952840;29;20051;-76
2022/10/14 07:13:46;;;;;;;43.10;20.92;;;;;;;12.38;100.00;100753.88;4952526;28;20058;-77
2022/10/14 07:16:12;;;;;;;35.10;20.75;;;;;;;12.39;100.00;100750.38;4952177;28;20043;-75
2022/10/14 07:18:39;;;;;;;30.38;18.60;;;;;;;12.39;100.00;100753.00;4952285;28;20053;-76
2022/10/14 07:21:06;;;;;;;52.28;24.40;;;;;;;12.37;100.00;100757.41;4936608;29;20115;-79
2022/10/14 07:23:33;;;;;;;46.17;21.80;;;;;;;12.34;100.00;100755.69;4925629;28;20051;-78
2022/10/14 07:26:03;;;;;;;44.88;24.33;;;;;;;12.32;100.00;100767.97;4951889;28;20398;-75
2022/10/14 07:28:29;;;;;;;44.60;24.55;;;;;;;12.33;100.00;100758.34;4949395;28;20043;-75
2022/10/14 07:31:17;;;;;;;41.63;24.98;;;;;;;12.40;100.00;100754.75;4939476;29;20043;-82
2022/10/14 07:33:45;;;;;;;41.83;23.55;;;;;;;12.50;100.00;100755.47;4917844;28;20047;-78
2022/10/14 07:36:14;;;;;;;41.03;22.13;;;;;;;12.54;100.00;100755.41;4938940;29;20044;-77
2022/10/14 07:38:42;;;;;;;35.15;21.33;;;;;;;12.64;100.00;100756.09;4939614;29;20390;-77
2022/10/14 07:41:19;;;;;;;42.70;23.73;;;;;;;12.69;100.00;100753.44;4944865;29;20035;-76
2022/10/14 07:43:49;;;;;;;38.42;22.65;;;;;;;12.71;100.00;100757.75;4938492;28;20126;-82
2022/10/14 07:46:27;;;;;;;46.67;26.42;;;;;;;12.73;100.00;100758.59;4942032;29;20071;-80
2022/10/14 07:48:56;;;;;;;48.58;23.73;;;;;;;12.73;100.00;100760.34;4951819;28;21663;-75
2022/10/14 07:51:23;;;;;;;43.35;23.13;;;;;;;12.76;100.00;100762.06;4944163;29;20058;-78
2022/10/14 07:53:51;;;;;;;46.78;25.15;;;;;;;12.80;100.00;100759.38;4954243;28;20042;-78
2022/10/14 07:56:18;;;;;;;37.25;20.35;;;;;;;12.86;100.00;100761.03;4944914;29;20047;-78
2022/10/14 07:58:45;;;;;;;47.60;25.58;;;;;;;12.85;100.00;100765.44;4948403;29;20045;-78
2022/10/14 08:01:14;;;;;;;39.10;22.55;;;;;;;12.85;100.00;100761.91;4953893;28;20574;-79
2022/10/14 08:03:41;;;;;;;36.03;22.35;;;;;;;12.87;100.00;100763.63;4943925;29;20086;-78
2022/10/14 08:06:11;;;;;;;34.45;22.02;;;;;;;12.96;100.00;100757.34;4955704;28;20392;-81
2022/10/14 08:08:38;;;;;;;39.30;22.27;;;;;;;13.13;100.00;100764.06;4938890;29;20059;-75
2022/10/14 08:11:14;;;;;;;39.92;22.73;;;;;;;13.44;100.00;100760.91;4948589;28;20043;-81
2022/10/14 08:13:41;;;;;;;35.80;20.10;;;;;;;13.72;100.00;100763.88;4935218;28;20160;-75
2022/10/14 08:16:18;;;;;;;41.58;21.67;;;;;;;13.76;100.00;100756.78;4947445;29;20043;-76
2022/10/14 08:18:46;;;;;;;37.65;21.17;;;;;;;13.72;100.00;100753.34;4934543;29;20050;-76
2022/10/14 08:21:14;;;;;;;36.78;20.17;;;;;;;13.72;100.00;100746.31;4936102;29;20130;-78
2022/10/14 08:23:41;;;;;;;41.50;21.55;;;;;;;13.72;100.00;100748.94;4935557;28;20068;-75
2022/10/14 08:26:33;;;;;;;41.35;21.90;;;;;;;13.73;100.00;100752.44;4935432;29;20118;-76
2022/10/14 08:29:03;;;;;;;35.35;20.17;;;;;;;13.81;100.00;100740.00;4948872;28;20055;-75
2022/10/14 08:31:30;;;;;;;38.55;21.67;;;;;;;13.94;100.00;100740.59;4941013;29;20064;-76
2022/10/14 08:33:57;;;;;;;34.70;20.73;;;;;;;14.20;100.00;100732.13;4936695;28;20970;-78
2022/10/14 08:36:24;;;;;;;31.23;18.83;;;;;;;14.40;100.00;100738.69;4939557;29;20508;-76
2022/10/14 08:38:53;;;;;;;27.58;19.10;;;;;;;14.54;100.00;100730.47;4949856;29;20078;-75
2022/10/14 08:41:37;;;;;;;32.40;19.77;;;;;;;14.56;100.00;100726.91;4951370;29;20049;-78
2022/10/14 08:44:15;;;;;;;32.40;18.27;;;;;;;14.51;100.00;100725.25;4952788;28;20074;-81
2022/10/14 08:46:52;;;;;;;31.08;18.20;;;;;;;14.57;100.00;100725.13;4940752;29;20143;-75
2022/10/14 08:49:54;;;;;;;28.23;18.02;;;;;;;14.73;100.00;100720.34;4924665;29;20114;-77
2022/10/14 08:52:30;;;;;;;29.95;17.90;;;;;;;14.91;100.00;100713.75;4942413;28;20035;-78
2022/10/14 08:55:39;;;;;;;25.80;16.10;;;;;;;15.13;100.00;100708.78;4954984;28;20502;-76
2022/10/14 08:58:31;;;;;;;27.92;17.02;;;;;;;15.43;100.00;100708.84;4915143;29;20098;-78
2022/10/14 09:01:17;;;;;;;27.65;17.23;;;;;;;15.52;99.40;100708.56;4952772;28;20047;-75
2022/10/14 09:03:44;;;;;;;30.52;18.33;;;;;;;15.61;99.78;100709.25;4942563;28;20102;-75
2022/10/14 09:06:20;;;;;;;23.08;16.17;;;;;;;15.79;97.17;100699.91;4948704;29;20058;-78
2022/10/14 09:08:48;;;;;;;22.55;14.18;;;;;;;15.73;95.01;100698.31;4942278;29;20055;-77
2022/10/14 09:11:20;;;;;;;19.58;13.02;;;;;;;15.70;93.76;100693.97;4955751;28;20047;-80
2022/10/14 09:13:59;;;;;;;15.68;11.23;;;;;;;15.41;93.69;100689.56;4939018;28;20138;-77
2022/10/14 09:16:33;;;;;;;15.73;11.15;;;;;;;15.24;94.17;100702.34;4954970;28;20046;-76
2022/10/14 09:19:01;;;;;;;13.07;10.27;;;;;;;15.27;95.05;100700.50;4937515;29;20051;-79
2022/10/14 09:21:36;;;;;;;13.10;9.30;;;;;;;15.44;94.26;100704.44;4952095;28;20062;-76
2022/10/14 09:24:15;;;;;;;12.75;9.13;;;;;;;15.51;93.19;100696.31;4943050;29;20043;-77
2022/10/14 09:26:52;;;;;;;10.93;8.02;;;;;;;15.53;93.07;100697.13;4938870;29;20047;-79
2022/10/14 09:29:31;;;;;;;15.27;9.82;;;;;;;15.75;91.82;100707.06;4926322;29;20051;-78
2022/10/14 09:32:16;;;;;;;8.73;7.00;;;;;;;15.99;90.49;100707.25;4927076;29;20048;-83
2022/10/14 09:34:49;;;;;;;10.05;8.40;;;;;;;16.12;87.80;100703.31;4939244;29;20145;-79
2022/10/14 09:37:25;;;;;;;10.80;7.57;;;;;;;15.91;87.03;100707.50;4951796;29;20500;-76
2022/10/14 09:39:57;;;;;;;9.73;6.47;;;;;;;15.67;88.44;100701.13;4942245;29;20462;-77
2022/10/14 09:42:40;;;;;;;8.45;6.85;;;;;;;15.49;89.83;100705.19;4946781;28;20047;-81
2022/10/14 09:45:12;;;;;;;7.32;6.45;;;;;;;15.28;90.88;100709.25;4932912;29;20050;-76
2022/10/14 09:48:06;;;;;;;9.30;6.22;;;;;;;15.18;91.61;100704.25;4941512;29;20043;-79
2022/10/14 09:50:49;;;;;;;7.07;5.78;;;;;;;15.05;91.51;100708.97;4932084;29;20134;-77
2022/10/14 09:53:39;;;;;;;8.13;5.43;;;;;;;15.02;92.71;100705.59;4941272;29;20515;-75
2022/10/14 09:56:09;;;;;;;5.25;4.78;;;;;;;15.01;92.14;100703.84;4936117;29;20274;-77
2022/10/14 09:58:52;;;;;;;7.85;5.72;;;;;;;15.13;92.34;100697.38;4924914;29;20081;-75
2022/10/14 10:01:22;;;;;;;4.43;3.50;;;;;;;15.43;87.72;100687.75;4958398;28;20047;-76
2022/10/14 10:03:52;;;;;;;3.08;2.85;;;;;;;15.44;87.07;100680.72;4933625;28;20474;-78
2022/10/14 10:06:24;;;;;;;6.45;3.63;;;;;;;15.29;87.43;100684.63;4939402;29;20035;-79
2022/10/14 10:08:55;;;;;;;3.33;2.70;;;;;;;15.07;88.12;100677.34;4949159;28;20075;-79
2022/10/14 10:11:42;;;;;;;3.40;3.10;;;;;;;15.04;89.42;100678.28;4943264;29;20356;-79
2022/10/14 10:14:26;;;;;;;3.40;3.10;;;;;;;15.48;88.67;100661.25;4956466;28;20517;-77
2022/10/14 10:17:26;;;;;;;2.90;2.70;;;;;;;15.77;85.19;100662.13;4946413;29;20055;-76
2022/10/14 10:20:09;;;;;;;3.22;2.92;;;;;;;15.97;84.64;100657.16;4901650;28;20066;-81
2022/10/14 10:22:37;;;;;;;3.85;2.22;;;;;;;16.25;84.43;100658.03;4942245;28;20074;-78
2022/10/14 10:25:04;;;;;;;4.68;2.17;;;;;;;16.55;82.03;100650.88;4953548;29;20043;-77
2022/10/14 10:27:39;;;;;;;2.53;2.05;;;;;;;16.71;80.50;100651.19;4952797;29;20102;-79
2022/10/14 10:30:17;;;;;;;2.00;1.75;;;;;;;16.69;78.67;100647.75;4952115;29;20035;-81
2022/10/14 10:32:55;;;;;;;2.22;1.40;;;;;;;16.58;77.84;100644.63;4951578;28;20035;-77
2022/10/14 10:35:37;;;;;;;2.63;1.75;;;;;;;16.53;77.48;100645.63;4957604;28;20139;-76
2022/10/14 10:38:19;;;;;;;3.10;2.20;;;;;;;16.58;78.51;100642.81;4961426;28;20040;-81
2022/10/14 10:41:10;;;;;;;1.75;1.58;;;;;;;16.81;77.24;100630.59;4952710;28;20161;-76
2022/10/14 10:44:10;;;;;;;2.35;1.73;;;;;;;17.13;75.68;100629.47;4951895;28;20035;-82
2022/10/14 10:47:11;;;;;;;2.55;1.75;;;;;;;17.06;75.23;100630.63;4945590;29;20058;-76
2022/10/14 10:50:17;;;;;;;1.58;1.35;;;;;;;17.06;75.93;100635.91;4918844;29;20070;-75
2022/10/14 10:52:58;;;;;;;1.50;1.15;;;;;;;17.08;76.06;100627.91;4927384;29;20063;-76
2022/10/14 10:56:10;;;;;;;1.75;1.00;;;;;;;17.44;74.55;100617.75;4951799;28;20075;-78
2022/10/14 10:59:25;;;;;;;2.00;1.60;;;;;;;17.65;72.76;100613.41;4908026;29;20054;-79
2022/10/14 11:02:44;;;;;;;1.42;1.33;;;;;;;17.75;71.06;100608.59;4948619;28;20039;-78
2022/10/14 11:05:42;;;;;;;1.75;1.65;;;;;;;17.56;72.54;100611.13;4924591;29;20154;-76
2022/10/14 11:12:06;;;;;;;1.75;1.65;;;;;;;17.93;71.67;100612.34;4946387;28;20077;-75
2022/10/14 11:15:29;;;;;;;1.13;1.13;;;;;;;17.91;70.79;100600.91;4941841;29;20134;-75
2022/10/14 11:18:15;;;;;;;0.80;0.80;;;;;;;17.97;70.01;100603.34;4955019;29;20043;-75
2022/10/14 11:21:09;;;;;;;1.10;1.10;;;;;;;18.02;70.09;100598.72;4922662;29;20165;-79
2022/10/14 11:23:58;;;;;;;;;;;;;;;18.22;67.92;100591.72;4934013;29;20534;-78
2022/10/14 11:27:02;;;;;;;1.35;0.90;;;;;;;18.29;67.67;100579.09;4936554;29;19930;-76
2022/10/14 11:29:55;;;;;;;;;;;;;;;18.38;67.65;100586.63;4936169;29;20043;-78
2022/10/14 11:33:03;;;;;;;1.20;1.10;;;;;;;18.56;67.04;100581.50;4949683;28;19926;-75
2022/10/14 11:36:04;;;;;;;1.25;1.13;;;;;;;18.89;65.78;100568.56;4949842;29;20445;-74
2022/10/14 11:38:49;;;;;;;0.85;0.85;;;;;;;18.90;65.38;100566.75;4948992;28;20060;-79
2022/10/14 11:41:52;;;;;;;2.70;0.90;;;;;;;19.00;65.49;100573.38;4951516;29;20803;-75